Time;durP1;ratioP1;P1;durP2;ratioP2;P2;SDS_P1;SDS_P2;PMS_P1;PMS_P2;Temp;Humidity;BMP_temperature;BMP_pressure;BME280_temperature;BME280_humidity;BME280_pressure;Samples;Min_cycle;Max_cycle;Signal;HPM_P1;HPM_P2
2022/01/31 00:00:50;;;;;;;2.22;1.33;;;16.20;45.90;;;;;;5036844;28;20022;-79
2022/01/31 00:03:17;;;;;;;3.33;1.38;;;16.10;45.80;;;;;;5036821;28;20039;-80
2022/01/31 00:05:42;;;;;;;3.00;1.42;;;16.20;45.90;;;;;;5039627;28;20116;-80
2022/01/31 00:08:09;;;;;;;2.92;1.23;;;16.10;45.90;;;;;;5024941;28;20056;-79
2022/01/31 00:10:36;;;;;;;4.43;1.70;;;16.10;45.90;;;;;;5042218;28;20032;-81
2022/01/31 00:13:08;;;;;;;2.83;1.30;;;16.10;45.90;;;;;;5011047;28;20025;-80
2022/01/31 00:15:39;;;;;;;2.65;1.45;;;16.10;45.90;;;;;;5055049;28;20022;-78
2022/01/31 00:18:05;;;;;;;3.22;1.33;;;16.10;45.90;;;;;;5040744;28;20020;-80
2022/01/31 00:20:51;;;;;;;2.55;1.40;;;16.10;45.90;;;;;;5043979;28;20060;-79
2022/01/31 00:23:36;;;;;;;2.90;1.25;;;16.10;45.90;;;;;;5046754;28;20021;-80
2022/01/31 00:26:22;;;;;;;6.07;1.90;;;16.10;45.90;;;;;;5046547;28;20014;-80
2022/01/31 00:29:08;;;;;;;2.92;1.30;;;16.10;45.90;;;;;;5059907;28;20018;-80
2022/01/31 00:31:54;;;;;;;2.05;1.30;;;16.10;45.90;;;;;;5059868;28;20487;-80
2022/01/31 00:34:20;;;;;;;4.07;1.58;;;16.00;45.90;;;;;;5060104;28;20061;-80
2022/01/31 00:36:45;;;;;;;2.40;1.38;;;16.00;45.90;;;;;;5027203;28;20089;-80
2022/01/31 00:39:11;;;;;;;4.32;1.85;;;16.00;45.90;;;;;;5042774;28;20033;-80
2022/01/31 00:41:37;;;;;;;4.05;1.48;;;16.00;45.90;;;;;;5059051;28;20037;-80
2022/01/31 00:47:04;;;;;;;3.53;1.35;;;16.00;45.90;;;;;;5010069;28;20565;-80
2022/01/31 00:51:56;;;;;;;5.72;1.50;;;16.00;45.90;;;;;;5058747;28;20029;-80
2022/01/31 00:54:23;;;;;;;3.30;1.55;;;16.00;46.00;;;;;;5041691;28;20113;-79
2022/01/31 00:56:49;;;;;;;4.63;1.20;;;16.00;45.90;;;;;;5034149;28;20025;-80
2022/01/31 00:59:16;;;;;;;3.08;1.52;;;16.00;46.00;;;;;;5018446;28;20499;-81
2022/01/31 01:01:41;;;;;;;4.32;1.40;;;15.90;45.90;;;;;;5018183;28;20025;-80
2022/01/31 01:04:08;;;;;;;2.72;1.33;;;15.90;45.90;;;;;;5018203;28;20010;-85
2022/01/31 01:06:34;;;;;;;2.75;1.45;;;15.90;45.90;;;;;;5035857;28;20026;-85
2022/01/31 01:09:01;;;;;;;3.58;1.48;;;15.90;46.00;;;;;;5018890;28;20014;-85
2022/01/31 01:11:26;;;;;;;4.25;1.30;;;15.90;45.90;;;;;;5024870;28;20017;-85
2022/01/31 01:13:53;;;;;;;3.58;1.38;;;15.90;45.90;;;;;;5017211;28;20036;-85
2022/01/31 01:16:21;;;;;;;3.65;1.35;;;15.90;46.00;;;;;;5033523;28;20117;-85
2022/01/31 01:18:47;;;;;;;3.03;1.40;;;15.90;46.00;;;;;;5017330;28;20476;-85
2022/01/31 01:21:14;;;;;;;5.82;2.00;;;15.90;46.10;;;;;;5033131;28;20014;-85
2022/01/31 01:23:40;;;;;;;3.75;1.40;;;15.90;46.00;;;;;;5034501;28;20503;-85
2022/01/31 01:26:07;;;;;;;3.97;1.40;;;15.90;46.00;;;;;;5016674;28;20472;-81
2022/01/31 01:28:33;;;;;;;3.25;1.50;;;15.80;46.00;;;;;;5033294;28;20033;-81
2022/01/31 01:31:00;;;;;;;2.72;1.27;;;15.80;46.00;;;;;;5016920;28;20021;-80
2022/01/31 01:33:26;;;;;;;4.28;1.60;;;15.80;46.00;;;;;;5034210;28;20035;-81
2022/01/31 01:35:53;;;;;;;3.35;1.58;;;15.80;46.00;;;;;;5032999;28;20028;-80
2022/01/31 01:38:19;;;;;;;4.63;1.70;;;15.80;46.10;;;;;;5016801;28;20037;-80
2022/01/31 01:40:46;;;;;;;1.77;1.13;;;15.80;46.10;;;;;;5033131;28;20028;-80
2022/01/31 01:43:13;;;;;;;4.47;1.85;;;15.80;46.10;;;;;;5016644;28;20024;-80
2022/01/31 01:45:40;;;;;;;5.53;1.35;;;15.80;46.00;;;;;;5033104;28;20048;-80
2022/01/31 01:48:07;;;;;;;2.88;1.38;;;15.90;46.00;;;;;;5017348;28;20037;-80
2022/01/31 01:50:34;;;;;;;3.67;1.60;;;16.00;45.80;;;;;;5017488;28;20108;-80
2022/01/31 01:53:00;;;;;;;3.85;1.50;;;16.10;45.50;;;;;;5000678;28;20074;-80
2022/01/31 01:55:27;;;;;;;3.33;1.35;;;16.20;45.30;;;;;;5016668;28;20024;-80
2022/01/31 01:57:53;;;;;;;4.75;1.85;;;16.20;45.20;;;;;;5035144;28;20148;-80
2022/01/31 02:00:25;;;;;;;3.33;1.60;;;16.30;45.20;;;;;;4999886;28;20112;-80
2022/01/31 02:02:51;;;;;;;2.28;1.27;;;16.30;45.10;;;;;;5033200;28;20022;-80
2022/01/31 02:05:17;;;;;;;3.53;1.52;;;16.30;45.10;;;;;;5034430;28;20030;-80
2022/01/31 02:07:43;;;;;;;3.45;1.20;;;16.30;45.00;;;;;;5034109;28;20018;-80
2022/01/31 02:10:10;;;;;;;2.90;1.20;;;16.40;44.90;;;;;;5016888;28;20057;-80
2022/01/31 02:12:44;;;;;;;3.40;1.38;;;16.50;44.80;;;;;;5032903;28;20040;-80
2022/01/31 02:15:10;;;;;;;2.45;1.38;;;16.60;44.70;;;;;;5016299;28;20373;-81
2022/01/31 02:17:37;;;;;;;2.28;1.40;;;16.60;44.60;;;;;;5015655;28;20010;-80
2022/01/31 02:20:04;;;;;;;2.63;1.40;;;16.70;44.50;;;;;;4999544;28;20491;-81
2022/01/31 02:22:30;;;;;;;2.20;1.30;;;16.70;44.30;;;;;;5032482;28;20017;-80
2022/01/31 02:24:56;;;;;;;2.67;1.15;;;16.80;44.20;;;;;;5015577;28;20028;-80
2022/01/31 02:27:29;;;;;;;3.28;1.30;;;16.90;44.10;;;;;;5015429;28;20109;-80
2022/01/31 02:29:56;;;;;;;2.60;1.30;;;16.90;44.00;;;;;;5016087;28;20025;-80
2022/01/31 02:32:22;;;;;;;4.53;1.52;;;17.00;43.90;;;;;;5015520;28;20030;-81
2022/01/31 02:34:49;;;;;;;3.58;1.30;;;17.00;43.80;;;;;;5015395;28;20118;-81
2022/01/31 02:37:15;;;;;;;2.17;1.17;;;17.10;43.70;;;;;;5015500;28;20472;-81
2022/01/31 02:39:44;;;;;;;3.05;1.30;;;17.10;43.60;;;;;;5031810;28;20513;-81
2022/01/31 02:42:10;;;;;;;2.47;1.30;;;17.20;43.60;;;;;;5015426;28;20014;-80
2022/01/31 02:44:39;;;;;;;2.70;1.25;;;17.20;43.50;;;;;;5032030;28;20017;-81
2022/01/31 02:47:10;;;;;;;2.55;1.10;;;17.20;43.60;;;;;;5015362;28;20100;-80
2022/01/31 02:49:45;;;;;;;2.53;1.30;;;17.20;43.50;;;;;;5016066;28;20025;-81
2022/01/31 02:52:13;;;;;;;4.40;1.33;;;17.30;43.50;;;;;;5016540;28;20165;-80
2022/01/31 02:54:39;;;;;;;2.47;1.20;;;17.30;43.50;;;;;;5031736;28;20049;-81
2022/01/31 02:57:05;;;;;;;2.70;1.33;;;17.30;43.50;;;;;;5015244;28;20441;-81
2022/01/31 02:59:31;;;;;;;2.50;1.10;;;17.40;43.40;;;;;;5031559;28;20022;-81
2022/01/31 03:02:00;;;;;;;2.33;1.20;;;17.40;43.50;;;;;;5015378;28;20010;-81
2022/01/31 03:04:26;;;;;;;3.00;1.25;;;17.40;43.40;;;;;;5015575;28;20040;-81
2022/01/31 03:06:53;;;;;;;3.08;1.40;;;17.40;43.30;;;;;;5031517;28;20018;-80
2022/01/31 03:09:18;;;;;;;2.45;1.05;;;17.40;43.30;;;;;;5014992;28;20102;-80
2022/01/31 03:11:45;;;;;;;3.38;1.40;;;17.40;43.40;;;;;;5031456;28;20034;-81
2022/01/31 03:14:11;;;;;;;2.08;1.15;;;17.40;43.40;;;;;;5015029;28;20029;-80
2022/01/31 03:16:41;;;;;;;3.50;1.20;;;17.40;43.40;;;;;;5031420;28;20041;-80
2022/01/31 03:19:07;;;;;;;2.53;1.20;;;17.50;43.50;;;;;;5031452;28;20006;-80
2022/01/31 03:21:33;;;;;;;2.78;1.50;;;17.50;43.40;;;;;;5015465;28;20371;-80
2022/01/31 03:24:00;;;;;;;3.33;1.40;;;17.50;43.50;;;;;;5031457;28;20025;-81
2022/01/31 03:26:26;;;;;;;1.90;0.95;;;17.50;43.50;;;;;;5033324;28;20108;-80
2022/01/31 03:28:53;;;;;;;1.60;0.88;;;17.60;44.00;;;;;;5015488;28;20159;-81
2022/01/31 03:31:20;;;;;;;3.05;1.30;;;17.60;43.50;;;;;;5002624;28;20085;-80
2022/01/31 03:33:47;;;;;;;3.10;1.10;;;17.50;43.40;;;;;;5019085;28;20025;-81
2022/01/31 03:36:12;;;;;;;2.20;1.00;;;17.50;43.40;;;;;;5002509;28;20464;-80
2022/01/31 03:38:41;;;;;;;2.38;1.20;;;17.60;43.50;;;;;;5035682;28;20430;-81
2022/01/31 03:41:10;;;;;;;3.33;1.45;;;17.50;43.50;;;;;;5019128;28;20490;-80
2022/01/31 03:43:36;;;;;;;5.03;1.40;;;17.60;43.50;;;;;;5035360;28;20048;-81
2022/01/31 03:46:02;;;;;;;2.85;1.20;;;17.60;43.50;;;;;;5036053;28;20084;-80
2022/01/31 03:48:29;;;;;;;2.65;1.20;;;17.60;43.40;;;;;;5036242;28;20535;-81
2022/01/31 03:50:58;;;;;;;2.30;1.25;;;17.60;43.50;;;;;;5018605;28;20022;-81
2022/01/31 03:53:23;;;;;;;1.75;0.90;;;17.60;44.00;;;;;;5002042;28;20095;-81
2022/01/31 03:55:49;;;;;;;3.95;1.10;;;17.60;43.40;;;;;;5018833;28;20036;-81
2022/01/31 03:58:15;;;;;;;2.05;1.10;;;17.60;43.40;;;;;;5034687;28;20060;-80
2022/01/31 04:00:41;;;;;;;2.13;1.10;;;17.60;43.40;;;;;;5018390;28;20013;-80
2022/01/31 04:03:08;;;;;;;2.10;1.23;;;17.60;43.40;;;;;;5018366;28;20025;-81
2022/01/31 04:05:36;;;;;;;2.40;1.13;;;17.60;43.50;;;;;;5034652;28;20075;-81
2022/01/31 04:08:03;;;;;;;2.60;0.93;;;17.60;43.50;;;;;;5034801;28;20049;-81
2022/01/31 04:10:29;;;;;;;1.73;0.88;;;17.60;43.40;;;;;;5034503;28;20025;-80
2022/01/31 04:12:55;;;;;;;2.25;1.10;;;17.70;43.40;;;;;;5035567;28;20087;-81
2022/01/31 04:15:22;;;;;;;2.88;1.13;;;17.70;43.30;;;;;;5018123;28;20021;-80
2022/01/31 04:17:49;;;;;;;1.80;1.00;;;17.70;43.20;;;;;;5034418;28;20045;-80
2022/01/31 04:20:17;;;;;;;2.35;1.08;;;17.80;43.20;;;;;;5035509;28;20020;-80
2022/01/31 04:22:53;;;;;;;3.20;1.30;;;17.90;43.10;;;;;;5034985;28;20020;-81
2022/01/31 04:28:15;;;;;;;3.70;1.10;;;18.00;42.90;;;;;;5037461;28;20032;-85
2022/01/31 04:30:46;;;;;;;2.15;1.08;;;18.00;42.80;;;;;;5035423;28;20013;-85
2022/01/31 04:33:11;;;;;;;1.67;1.02;;;18.10;42.60;;;;;;5002952;28;20025;-85
2022/01/31 04:35:37;;;;;;;2.85;1.05;;;18.20;42.40;;;;;;5033874;28;20037;-85
2022/01/31 04:38:04;;;;;;;2.63;0.82;;;18.20;42.30;;;;;;5034294;28;20022;-85
2022/01/31 04:40:29;;;;;;;1.55;0.93;;;18.30;42.10;;;;;;5017776;28;20032;-85
2022/01/31 04:42:55;;;;;;;3.53;0.90;;;18.40;42.10;;;;;;5034280;28;20021;-85
2022/01/31 04:45:21;;;;;;;2.72;1.05;;;18.50;42.00;;;;;;5017734;28;20081;-81
2022/01/31 04:47:47;;;;;;;2.67;1.00;;;18.50;41.80;;;;;;5033988;28;20049;-83
2022/01/31 04:50:13;;;;;;;2.78;1.15;;;18.60;41.70;;;;;;5034238;28;20021;-82
2022/01/31 04:52:42;;;;;;;2.00;1.10;;;18.60;41.50;;;;;;5020297;28;20101;-82
2022/01/31 04:55:10;;;;;;;1.67;0.88;;;18.70;41.50;;;;;;5018892;28;20017;-82
2022/01/31 04:57:36;;;;;;;3.70;1.10;;;18.80;41.30;;;;;;5037236;28;20097;-80
2022/01/31 05:00:06;;;;;;;2.13;0.80;;;18.80;41.20;;;;;;5042551;28;20021;-80
2022/01/31 05:02:32;;;;;;;2.13;1.10;;;18.90;41.10;;;;;;5026224;28;20041;-81
2022/01/31 05:04:58;;;;;;;2.30;1.10;;;19.00;41.00;;;;;;5026550;28;20017;-80
2022/01/31 05:07:24;;;;;;;2.22;0.90;;;19.00;41.00;;;;;;5042435;28;20029;-79
2022/01/31 05:09:50;;;;;;;2.22;0.90;;;19.10;40.80;;;;;;5058557;28;20065;-80
2022/01/31 05:12:17;;;;;;;1.70;1.05;;;19.20;40.70;;;;;;5058597;28;20020;-82
2022/01/31 05:14:43;;;;;;;2.22;1.00;;;19.20;40.60;;;;;;5058704;28;20029;-81
2022/01/31 05:17:09;;;;;;;2.90;1.05;;;19.20;40.60;;;;;;5042275;28;20030;-81
2022/01/31 05:19:35;;;;;;;2.60;1.00;;;19.30;40.50;;;;;;5042193;28;20073;-81
2022/01/31 05:22:00;;;;;;;1.90;0.88;;;19.30;40.30;;;;;;5058840;28;20061;-81
2022/01/31 05:24:27;;;;;;;2.47;1.00;;;19.40;40.20;;;;;;5059612;28;20013;-81
2022/01/31 05:26:54;;;;;;;2.15;1.10;;;19.50;40.20;;;;;;5055025;28;20037;-79
2022/01/31 05:29:20;;;;;;;4.03;1.15;;;19.50;40.10;;;;;;5049161;28;20059;-80
2022/01/31 05:31:46;;;;;;;2.25;0.90;;;19.50;40.00;;;;;;5014929;28;20010;-80
2022/01/31 05:34:13;;;;;;;2.30;1.02;;;19.60;39.80;;;;;;5032744;28;20031;-81
2022/01/31 05:36:39;;;;;;;2.75;1.00;;;19.70;39.80;;;;;;5048692;28;20037;-80
2022/01/31 05:39:06;;;;;;;2.17;1.10;;;19.70;39.70;;;;;;5047604;28;20385;-81
2022/01/31 05:41:32;;;;;;;1.83;0.82;;;19.80;39.70;;;;;;5042514;28;20025;-81
2022/01/31 05:43:59;;;;;;;2.33;1.05;;;19.90;39.60;;;;;;5037996;28;20022;-79
2022/01/31 05:46:25;;;;;;;6.65;1.08;;;19.90;39.40;;;;;;5037106;28;20066;-79
2022/01/31 05:48:52;;;;;;;2.85;1.10;;;19.90;39.30;;;;;;5035840;28;20466;-79
2022/01/31 05:51:22;;;;;;;2.33;0.93;;;20.00;39.30;;;;;;5032883;28;20399;-79
2022/01/31 05:53:48;;;;;;;1.85;0.98;;;20.00;39.20;;;;;;5016132;28;20025;-79
2022/01/31 05:56:15;;;;;;;2.00;0.98;;;20.10;39.20;;;;;;5032585;28;20113;-79
2022/01/31 05:58:41;;;;;;;2.72;1.10;;;20.10;39.00;;;;;;4999699;28;20092;-78
2022/01/31 06:01:07;;;;;;;1.50;0.85;;;20.10;39.00;;;;;;5016594;28;20050;-79
2022/01/31 06:03:40;;;;;;;1.92;0.80;;;20.20;38.90;;;;;;5016317;28;20378;-80
2022/01/31 06:06:06;;;;;;;2.60;0.90;;;20.20;38.90;;;;;;5032340;28;20021;-81
2022/01/31 06:08:32;;;;;;;1.60;0.90;;;20.30;38.90;;;;;;5015715;28;20030;-81
2022/01/31 06:10:58;;;;;;;3.17;0.80;;;20.30;38.80;;;;;;5032340;28;20096;-82
2022/01/31 06:13:28;;;;;;;3.58;1.00;;;20.30;38.70;;;;;;5032268;28;20033;-81
2022/01/31 06:15:54;;;;;;;2.00;1.10;;;20.40;38.70;;;;;;5032301;28;20533;-80
2022/01/31 06:18:19;;;;;;;2.45;1.00;;;20.40;38.60;;;;;;5015850;28;20018;-80
2022/01/31 06:20:48;;;;;;;2.35;0.93;;;20.40;38.50;;;;;;5015783;28;20013;-81
2022/01/31 06:23:14;;;;;;;3.17;1.13;;;20.40;38.50;;;;;;5033540;28;20063;-81
2022/01/31 06:25:40;;;;;;;2.15;1.00;;;20.50;38.50;;;;;;4999180;28;20124;-81
2022/01/31 06:28:07;;;;;;;2.22;1.00;;;20.50;38.50;;;;;;5015881;28;20033;-81
2022/01/31 06:30:32;;;;;;;2.30;1.00;;;20.50;38.40;;;;;;5015571;28;20026;-81
2022/01/31 06:32:58;;;;;;;2.08;1.00;;;20.60;38.40;;;;;;5031909;28;20503;-81
2022/01/31 06:35:24;;;;;;;1.95;1.05;;;20.60;38.30;;;;;;5031891;28;20025;-81
2022/01/31 06:37:51;;;;;;;3.70;1.17;;;20.60;38.30;;;;;;4999111;28;20440;-81
2022/01/31 06:40:16;;;;;;;2.90;0.90;;;20.60;38.30;;;;;;4999020;28;20014;-81
2022/01/31 06:42:42;;;;;;;5.28;1.20;;;20.70;38.30;;;;;;5015393;28;20957;-81
2022/01/31 06:45:09;;;;;;;2.00;1.00;;;20.70;38.20;;;;;;5015339;28;20060;-81
2022/01/31 06:47:34;;;;;;;2.10;0.95;;;20.70;38.10;;;;;;5015435;28;20422;-81
2022/01/31 06:50:04;;;;;;;1.83;1.00;;;20.70;38.00;;;;;;5015623;28;20030;-81
2022/01/31 06:52:33;;;;;;;3.10;0.90;;;20.80;38.10;;;;;;5015679;28;20075;-81
2022/01/31 06:55:02;;;;;;;2.92;1.23;;;20.80;38.60;;;;;;4999634;28;20421;-81
2022/01/31 06:57:33;;;;;;;1.55;0.85;;;20.80;38.00;;;;;;4999796;28;20018;-81
2022/01/31 07:00:08;;;;;;;4.13;1.30;;;20.80;37.90;;;;;;5015978;28;20018;-81
2022/01/31 07:02:35;;;;;;;3.30;1.10;;;20.80;37.80;;;;;;5032888;28;20032;-82
2022/01/31 07:05:02;;;;;;;3.13;1.02;;;20.80;37.80;;;;;;5017263;28;20013;-81
2022/01/31 07:07:31;;;;;;;3.83;1.20;;;20.90;37.80;;;;;;5003592;28;20026;-81
2022/01/31 07:09:57;;;;;;;2.05;1.17;;;20.90;37.80;;;;;;5019856;28;20017;-81
2022/01/31 07:12:30;;;;;;;3.38;1.20;;;20.90;37.70;;;;;;5035771;28;20529;-81
2022/01/31 07:14:57;;;;;;;10.13;3.00;;;20.90;37.70;;;;;;5020442;28;20500;-80
2022/01/31 07:17:23;;;;;;;10.00;3.03;;;19.20;34.60;;;;;;5019715;28;20022;-80
2022/01/31 07:19:49;;;;;;;12.73;2.92;;;16.20;38.60;;;;;;5019144;28;20376;-79
2022/01/31 07:22:20;;;;;;;12.73;2.95;;;15.00;42.00;;;;;;5036116;28;20022;-81
2022/01/31 07:25:00;;;;;;;12.18;2.58;;;14.70;43.00;;;;;;5034858;28;20510;-81
2022/01/31 07:27:29;;;;;;;15.18;2.67;;;14.10;44.40;;;;;;5021670;28;20033;-83
2022/01/31 07:29:55;;;;;;;11.00;2.53;;;14.50;43.60;;;;;;5003982;28;20075;-81
2022/01/31 07:32:21;;;;;;;10.70;3.10;;;13.50;45.10;;;;;;5019709;28;20025;-80
2022/01/31 07:34:55;;;;;;;12.68;3.13;;;12.40;47.30;;;;;;5021341;28;20014;-79
2022/01/31 07:37:24;;;;;;;11.23;2.50;;;11.80;50.60;;;;;;5036951;28;20056;-81
2022/01/31 07:39:50;;;;;;;14.52;3.00;;;11.60;51.00;;;;;;5020348;28;20009;-79
2022/01/31 07:42:20;;;;;;;13.63;3.67;;;10.80;52.10;;;;;;5021166;28;20085;-79
2022/01/31 07:44:46;;;;;;;16.88;3.30;;;11.00;52.70;;;;;;5021664;28;20077;-81
2022/01/31 07:47:12;;;;;;;18.27;3.00;;;10.80;52.70;;;;;;5004412;28;20059;-80
2022/01/31 07:49:38;;;;;;;10.52;3.25;;;10.70;53.50;;;;;;5021792;28;20021;-80
2022/01/31 07:52:04;;;;;;;11.02;2.95;;;12.30;51.60;;;;;;5037400;28;20139;-79
2022/01/31 07:54:30;;;;;;;15.43;3.13;;;11.60;50.50;;;;;;5004002;28;20026;-78
2022/01/31 07:56:57;;;;;;;7.47;2.50;;;12.60;50.50;;;;;;5008748;28;20171;-79
2022/01/31 07:59:23;;;;;;;17.15;3.10;;;13.90;47.90;;;;;;5026505;28;20013;-80
2022/01/31 08:01:49;;;;;;;15.60;2.92;;;14.70;46.20;;;;;;5040330;28;20024;-80
2022/01/31 08:04:15;;;;;;;12.52;3.15;;;15.20;45.80;;;;;;5022596;28;20010;-81
2022/01/31 08:06:41;;;;;;;29.98;4.57;;;15.70;44.30;;;;;;5023802;28;20026;-78
2022/01/31 08:09:06;;;;;;;27.27;3.58;;;16.40;43.40;;;;;;5005791;28;20018;-79
2022/01/31 08:11:35;;;;;;;25.15;3.45;;;16.20;42.90;;;;;;5003217;28;20021;-78
2022/01/31 08:14:11;;;;;;;21.35;3.50;;;15.80;42.80;;;;;;5020356;28;20029;-78
2022/01/31 08:16:38;;;;;;;19.58;3.55;;;12.80;46.00;;;;;;5019805;23;20080;-46
2022/01/31 08:19:08;;;;;;;18.25;3.63;;;13.10;46.10;;;;;;5034100;28;20484;-46
2022/01/31 08:21:34;;;;;;;9.15;2.72;;;12.30;48.60;;;;;;5033422;28;20017;-46
2022/01/31 08:24:00;;;;;;;14.25;3.13;;;12.00;48.80;;;;;;5034499;28;20417;-46
2022/01/31 08:26:26;;;;;;;15.23;2.83;;;12.50;48.60;;;;;;5034378;28;20017;-46
2022/01/31 08:28:58;;;;;;;11.10;3.25;;;11.80;47.80;;;;;;5034805;28;20014;-47
2022/01/31 08:31:29;;;;;;;10.15;2.70;;;11.60;50.00;;;;;;5034818;28;20021;-47
2022/01/31 08:36:27;;;;;;;10.23;2.60;;;11.60;49.80;;;;;;5032901;28;20088;-47
2022/01/31 08:38:55;;;;;;;9.35;2.75;;;11.00;50.80;;;;;;5033184;28;20024;-47
2022/01/31 08:41:21;;;;;;;12.57;3.10;;;12.00;49.50;;;;;;5034358;28;20013;-45
2022/01/31 08:43:47;;;;;;;14.90;4.05;;;11.70;48.90;;;;;;5033723;28;20287;-47
2022/01/31 08:46:14;;;;;;;17.33;3.67;;;11.90;48.60;;;;;;5032656;28;20014;-46
2022/01/31 08:48:39;;;;;;;15.68;3.35;;;11.80;48.90;;;;;;5032624;28;20025;-45
2022/01/31 08:51:07;;;;;;;14.93;3.35;;;11.80;49.60;;;;;;5034038;28;20056;-47
2022/01/31 08:53:33;;;;;;;9.40;3.08;;;12.20;48.50;;;;;;5033958;28;20028;-48
2022/01/31 08:56:09;;;;;;;16.15;3.53;;;11.50;49.30;;;;;;5016242;28;20018;-47
2022/01/31 08:58:41;;;;;;;16.70;3.15;;;11.40;49.90;;;;;;5033724;28;20018;-48
2022/01/31 09:01:08;;;;;;;18.33;3.65;;;11.90;49.20;;;;;;5033382;28;20451;-59
2022/01/31 09:06:10;;;;;;;12.18;3.30;;;11.80;48.90;;;;;;5034280;28;20120;-52
2022/01/31 09:08:36;;;;;;;14.35;3.78;;;11.50;49.10;;;;;;5034783;28;20112;-53
2022/01/31 09:11:03;;;;;;;12.13;3.42;;;12.60;47.80;;;;;;5034874;28;20022;-50
2022/01/31 09:13:28;;;;;;;10.98;3.17;;;13.40;45.90;;;;;;5034698;28;20076;-49
2022/01/31 09:15:54;;;;;;;13.73;3.70;;;13.80;43.80;;;;;;5034084;28;20022;-52
2022/01/31 09:18:20;;;;;;;12.82;3.50;;;14.40;42.90;;;;;;5032368;28;20455;-51
2022/01/31 09:20:46;;;;;;;10.77;3.55;;;14.80;41.60;;;;;;5034035;28;20003;-52
2022/01/31 09:23:12;;;;;;;11.38;3.38;;;14.40;41.80;;;;;;5032628;28;20384;-52
2022/01/31 09:25:43;;;;;;;15.93;4.15;;;15.00;40.90;;;;;;5034132;28;21128;-52
2022/01/31 09:28:10;;;;;;;13.23;3.25;;;15.20;40.40;;;;;;5033251;28;20025;-50
2022/01/31 09:30:36;;;;;;;12.63;3.33;;;15.50;39.50;;;;;;5032785;28;20022;-52
2022/01/31 09:33:01;;;;;;;13.45;3.22;;;15.60;39.40;;;;;;5033377;28;20109;-49
2022/01/31 09:35:27;;;;;;;10.45;3.33;;;15.40;39.70;;;;;;5034665;28;20079;-53
2022/01/31 09:37:53;;;;;;;11.73;3.22;;;15.40;39.40;;;;;;5034848;28;20014;-53
2022/01/31 09:40:21;;;;;;;9.75;3.50;;;15.70;38.70;;;;;;5034965;28;20026;-52
2022/01/31 09:43:39;;;;;;;16.20;3.83;;;16.00;38.40;;;;;;5033694;28;20018;-52
2022/01/31 09:48:37;;;;;;;13.38;3.28;;;16.20;37.80;;;;;;5033710;28;20018;-51
2022/01/31 09:51:10;;;;;;;10.77;3.22;;;16.50;37.50;;;;;;5033439;28;20101;-52
2022/01/31 09:53:50;;;;;;;14.05;3.20;;;16.40;37.10;;;;;;5033714;28;20033;-50
2022/01/31 09:56:24;;;;;;;12.82;3.47;;;15.60;38.60;;;;;;5033805;28;20107;-53
2022/01/31 09:58:50;;;;;;;10.88;3.00;;;15.80;39.10;;;;;;5033513;28;20018;-52
2022/01/31 10:01:27;;;;;;;18.95;3.40;;;16.30;38.10;;;;;;5033729;28;20029;-51
2022/01/31 10:03:58;;;;;;;13.43;3.05;;;15.70;38.70;;;;;;5033606;28;20089;-52
2022/01/31 10:06:28;;;;;;;13.20;3.35;;;15.60;39.10;;;;;;5015128;28;20020;-57
2022/01/31 10:09:05;;;;;;;11.82;3.25;;;16.00;38.90;;;;;;5032298;28;20017;-57
2022/01/31 10:11:40;;;;;;;17.38;3.88;;;15.80;38.30;;;;;;5032116;28;20041;-56
2022/01/31 10:16:58;;;;;;;11.98;3.45;;;16.00;39.00;;;;;;5032436;28;20056;-54
2022/01/31 10:19:24;;;;;;;32.55;4.68;;;15.90;38.60;;;;;;5032838;28;20052;-54
2022/01/31 10:21:57;;;;;;;13.77;3.58;;;16.50;39.20;;;;;;5032613;28;20017;-53
2022/01/31 10:24:23;;;;;;;21.60;3.63;;;16.10;37.90;;;;;;5032948;28;20097;-54
2022/01/31 10:26:49;;;;;;;17.80;3.55;;;16.40;39.60;;;;;;5031243;28;20128;-55
2022/01/31 10:29:16;;;;;;;18.13;3.80;;;17.10;39.00;;;;;;5032743;28;20036;-57
2022/01/31 10:32:01;;;;;;;19.02;4.10;;;17.70;38.10;;;;;;5032783;28;20096;-56
2022/01/31 10:34:28;;;;;;;21.25;5.07;;;18.20;37.00;;;;;;5032676;28;20033;-57
2022/01/31 10:36:54;;;;;;;17.83;4.40;;;18.60;36.30;;;;;;5032421;28;20021;-58
2022/01/31 10:53:39;;;;;;;12.48;4.40;;;20.00;32.90;;;;;;5032377;28;20065;-55
2022/01/31 10:56:05;;;;;;;20.02;4.75;;;20.20;32.60;;;;;;5031796;28;20173;-54
2022/01/31 10:58:31;;;;;;;13.30;4.53;;;20.30;32.40;;;;;;5031349;28;20018;-56
2022/01/31 11:01:14;;;;;;;17.05;4.30;;;20.20;32.40;;;;;;5032072;28;20025;-57
2022/01/31 11:03:40;;;;;;;22.23;4.53;;;20.10;32.60;;;;;;5014804;28;20067;-57
2022/01/31 11:06:10;;;;;;;14.75;4.32;;;20.10;32.60;;;;;;5032799;28;20052;-57
2022/01/31 11:08:35;;;;;;;21.40;4.68;;;20.20;32.60;;;;;;5031334;28;20075;-58
2022/01/31 11:11:01;;;;;;;14.98;4.60;;;20.20;32.60;;;;;;5032503;28;20006;-58
2022/01/31 11:13:27;;;;;;;10.45;4.22;;;20.30;32.50;;;;;;5032259;28;20060;-57
2022/01/31 11:15:56;;;;;;;13.48;4.20;;;20.40;32.50;;;;;;5015056;28;20090;-57
2022/01/31 11:18:23;;;;;;;15.13;4.32;;;20.50;32.50;;;;;;5032722;28;20147;-59
2022/01/31 11:20:54;;;;;;;15.10;4.20;;;20.50;32.50;;;;;;5031197;28;20035;-58
2022/01/31 11:23:21;;;;;;;19.20;4.97;;;20.60;32.60;;;;;;5016008;28;20022;-58
2022/01/31 11:25:48;;;;;;;11.48;3.38;;;20.60;32.60;;;;;;5032196;28;20013;-59
2022/01/31 11:28:14;;;;;;;12.18;4.22;;;20.70;32.60;;;;;;5031634;28;20014;-59
2022/01/31 11:30:41;;;;;;;15.23;4.43;;;20.70;32.60;;;;;;5032742;28;20020;-59
2022/01/31 11:33:06;;;;;;;12.77;4.40;;;20.70;32.60;;;;;;5033051;28;20032;-59
2022/01/31 11:35:32;;;;;;;19.35;4.50;;;20.80;32.70;;;;;;5031661;28;20387;-60
2022/01/31 11:37:58;;;;;;;10.85;4.10;;;20.80;32.70;;;;;;5032737;28;20427;-59
2022/01/31 11:40:24;;;;;;;14.45;3.75;;;20.80;32.70;;;;;;5032064;28;20013;-59
2022/01/31 11:42:50;;;;;;;13.63;3.85;;;20.90;32.80;;;;;;5032127;28;20033;-58
2022/01/31 11:45:23;;;;;;;13.02;3.67;;;21.00;32.80;;;;;;5030180;28;20024;-58
2022/01/31 11:47:49;;;;;;;12.73;3.45;;;21.00;32.80;;;;;;5031569;28;20239;-58
2022/01/31 11:50:15;;;;;;;13.02;3.58;;;21.00;32.80;;;;;;5031753;28;20013;-58
2022/01/31 11:52:54;;;;;;;10.02;3.40;;;21.10;32.90;;;;;;5034792;28;20110;-58
2022/01/31 11:55:22;;;;;;;8.75;3.53;;;21.10;32.80;;;;;;5033798;28;20025;-58
2022/01/31 11:57:49;;;;;;;8.23;3.20;;;21.10;32.80;;;;;;5035486;28;20013;-58
2022/01/31 12:00:16;;;;;;;10.05;3.72;;;21.10;32.80;;;;;;5034197;28;20029;-58
2022/01/31 12:02:53;;;;;;;12.02;3.83;;;21.20;32.80;;;;;;5035095;28;20037;-57
2022/01/31 12:05:25;;;;;;;8.75;3.58;;;21.30;32.90;;;;;;5033697;28;20029;-58
2022/01/31 12:08:05;;;;;;;13.48;3.53;;;21.30;32.90;;;;;;5035356;28;20013;-57
2022/01/31 12:10:40;;;;;;;9.75;3.35;;;21.30;32.90;;;;;;5035187;28;20005;-57
2022/01/31 12:13:27;;;;;;;11.68;3.53;;;21.40;33.00;;;;;;5034856;28;20029;-57
2022/01/31 12:24:42;;;;;;;8.38;2.95;;;21.50;33.10;;;;;;5033834;28;20203;-57
2022/01/31 12:27:11;;;;;;;9.23;3.10;;;21.50;33.10;;;;;;5028256;28;20396;-58
2022/01/31 12:29:41;;;;;;;9.02;2.83;;;21.50;33.20;;;;;;5034992;28;20118;-57
2022/01/31 12:32:17;;;;;;;11.23;3.00;;;21.60;33.30;;;;;;5034317;28;20024;-57
2022/01/31 12:34:58;;;;;;;10.73;3.33;;;21.50;33.30;;;;;;5034915;28;20082;-58
2022/01/31 12:37:37;;;;;;;9.70;2.75;;;21.60;33.40;;;;;;5032632;28;20028;-58
2022/01/31 12:40:18;;;;;;;8.32;3.00;;;21.60;33.40;;;;;;5033283;28;20018;-57
2022/01/31 12:45:39;;;;;;;7.78;2.58;;;21.70;33.50;;;;;;5035452;28;20032;-57
2022/01/31 12:48:19;;;;;;;7.32;3.15;;;21.70;33.60;;;;;;5035422;28;20018;-57
2022/01/31 12:50:59;;;;;;;7.50;2.83;;;21.70;33.70;;;;;;5035109;28;20412;-57
2022/01/31 12:56:12;;;;;;;7.07;2.60;;;21.70;33.70;;;;;;5035114;28;20017;-58
2022/01/31 12:58:47;;;;;;;7.72;2.97;;;21.80;33.70;;;;;;5035150;28;20005;-58
2022/01/31 13:01:18;;;;;;;6.15;2.38;;;21.80;33.70;;;;;;5035370;28;20144;-58
2022/01/31 13:03:47;;;;;;;5.97;2.67;;;21.80;33.70;;;;;;5033761;28;20025;-58
2022/01/31 13:06:26;;;;;;;7.00;2.65;;;21.80;33.80;;;;;;5033688;28;20014;-58
2022/01/31 13:08:51;;;;;;;8.65;3.03;;;21.90;33.80;;;;;;5034563;28;20487;-57
2022/01/31 13:11:17;;;;;;;7.80;2.83;;;21.90;33.80;;;;;;5016820;28;20018;-59
2022/01/31 13:13:43;;;;;;;10.90;2.95;;;21.90;33.80;;;;;;5033391;28;20044;-56
2022/01/31 13:16:10;;;;;;;6.88;2.42;;;21.90;33.80;;;;;;5034062;28;20103;-57
2022/01/31 13:18:36;;;;;;;10.57;3.17;;;22.00;33.90;;;;;;5034461;28;20026;-57
2022/01/31 13:21:04;;;;;;;6.05;2.58;;;22.00;33.90;;;;;;5034048;28;20357;-57
2022/01/31 13:23:31;;;;;;;7.60;2.42;;;22.00;33.90;;;;;;5033000;28;20013;-57
2022/01/31 13:26:02;;;;;;;6.20;2.80;;;22.00;33.90;;;;;;5034423;28;20012;-58
2022/01/31 13:28:28;;;;;;;6.95;2.42;;;22.00;33.90;;;;;;5032553;28;20012;-58
2022/01/31 13:31:02;;;;;;;9.10;2.60;;;22.00;33.90;;;;;;5032316;28;20017;-58
2022/01/31 13:33:28;;;;;;;6.30;2.58;;;22.00;33.90;;;;;;5032388;28;20116;-57
2022/01/31 13:36:00;;;;;;;8.70;2.67;;;22.00;33.90;;;;;;5033750;28;20048;-58